createdAt,value
2019-04-21T00:01:05.060Z,70.64
2019-04-21T00:04:21.162Z,70.62
2019-04-21T00:07:33.198Z,70.77
2019-04-21T00:10:40.085Z,71.10
2019-04-21T00:13:43.895Z,70.81
2019-04-21T00:16:46.643Z,71.05
2019-04-21T00:19:47.669Z,72.06
2019-04-21T00:23:13.141Z,72.80
2019-04-21T00:26:15.146Z,73.09
2019-04-21T00:29:30.357Z,73.29
2019-04-21T00:32:28.112Z,74.03
2019-04-21T00:35:27.491Z,73.13
2019-04-21T00:39:02.117Z,72.62
2019-04-21T00:41:59.626Z,73.10
2019-04-21T00:45:02.060Z,72.91
2019-04-21T00:48:20.657Z,73.34
2019-04-21T00:51:36.058Z,73.20
2019-04-21T00:54:35.387Z,74.18
2019-04-21T00:57:49.880Z,74.70
2019-04-21T01:00:47.605Z,75.18
2019-04-21T01:03:52.969Z,74.36
2019-04-21T01:07:05.537Z,74.67
2019-04-21T01:09:58.341Z,74.75
2019-04-21T01:13:18.695Z,74.64
2019-04-21T01:16:20.648Z,75.58
2019-04-21T01:19:29.827Z,75.81
2019-04-21T01:22:12.496Z,76.19
2019-04-21T01:25:27.409Z,76.03
2019-04-21T01:28:40.015Z,76.27
2019-04-21T01:31:48.488Z,76.35
2019-04-21T01:35:00.727Z,76.50
2019-04-21T01:38:07.149Z,77.25
2019-04-21T01:41:15.541Z,78.00
2019-04-21T01:44:25.060Z,78.62
2019-04-21T01:47:20.151Z,78.32
2019-04-21T01:50:31.262Z,78.72
2019-04-21T01:53:56.506Z,79.16
2019-04-21T01:57:15.640Z,78.58
2019-04-21T02:00:13.668Z,78.56
2019-04-21T02:03:46.999Z,79.17
2019-04-21T02:06:39.118Z,79.67
2019-04-21T02:09:44.364Z,79.92
2019-04-21T02:12:52.282Z,80.20
2019-04-21T02:16:02.131Z,80.57
2019-04-21T02:19:00.073Z,80.85
2019-04-21T02:22:10.806Z,80.93
2019-04-21T02:25:23.092Z,80.87
2019-04-21T02:28:36.745Z,81.17
2019-04-21T02:32:01.628Z,80.88
2019-04-21T02:35:12.408Z,80.77
2019-04-21T02:38:02.042Z,81.16
2019-04-21T02:41:31.183Z,81.45
2019-04-21T02:47:27.563Z,81.43
2019-04-21T02:50:31.574Z,82.00
2019-04-21T02:56:50.238Z,83.14
2019-04-21T03:03:13.539Z,83.65
2019-04-21T03:06:40.209Z,83.50
2019-04-21T03:09:33.574Z,83.80
2019-04-21T03:12:38.118Z,84.05
2019-04-21T03:16:02.355Z,84.41
2019-04-21T03:18:56.755Z,84.55
2019-04-21T03:22:05.032Z,84.84
2019-04-21T03:25:25.373Z,84.29
2019-04-21T03:28:22.616Z,84.28
2019-04-21T03:40:42.496Z,85.46
2019-04-21T03:43:54.722Z,85.59
2019-04-21T03:47:02.188Z,85.65
2019-04-21T03:50:29.672Z,85.50
2019-04-21T03:53:09.299Z,85.90
2019-04-21T03:56:45.287Z,86.77
2019-04-21T03:59:25.033Z,87.19
2019-04-21T04:02:54.621Z,86.83
2019-04-21T04:06:22.612Z,86.70
2019-04-21T04:12:48.724Z,87.14
2019-04-21T04:15:51.449Z,86.69
2019-04-21T04:18:55.759Z,86.68
2019-04-21T04:22:09.112Z,86.09
2019-04-21T04:25:15.749Z,86.14
2019-04-21T04:28:18.952Z,86.57
2019-04-21T04:34:29.315Z,86.46
2019-04-21T04:37:36.689Z,86.03
2019-04-21T04:41:02.875Z,86.14
2019-04-21T04:44:07.003Z,85.70
2019-04-21T04:47:12.265Z,84.66
2019-04-21T04:50:15.668Z,82.15
2019-04-21T04:53:32.817Z,79.66
2019-04-21T04:59:42.501Z,73.87
2019-04-21T05:06:37.177Z,70.59
2019-04-21T05:09:28.650Z,70.38
2019-04-21T05:12:29.474Z,68.27
2019-04-21T05:15:37.876Z,68.59
2019-04-21T05:18:54.332Z,67.11
2019-04-21T05:21:48.050Z,65.76
2019-04-21T05:24:50.720Z,64.57
2019-04-21T05:27:55.368Z,63.25
2019-04-21T05:31:25.627Z,63.69
2019-04-21T05:34:30.532Z,63.85
2019-04-21T05:37:58.596Z,62.40
2019-04-21T05:40:52.259Z,60.53
2019-04-21T05:44:13.219Z,60.55
2019-04-21T05:47:37.944Z,59.92
2019-04-21T05:50:16.612Z,54.64
2019-04-21T05:56:36.536Z,54.62
2019-04-21T05:59:47.963Z,52.65
2019-04-21T06:03:00.089Z,53.94
2019-04-21T06:06:00.742Z,54.42
2019-04-21T06:09:11.106Z,53.87
2019-04-21T06:12:16.683Z,54.69
2019-04-21T06:15:19.743Z,54.57
2019-04-21T06:18:36.426Z,56.09
2019-04-21T06:21:33.287Z,57.31
2019-04-21T06:25:06.852Z,58.53
2019-04-21T06:27:52.670Z,57.89
2019-04-21T06:31:05.608Z,56.38
2019-04-21T06:34:06.711Z,56.69
2019-04-21T06:37:34.865Z,55.50
2019-04-21T06:43:51.051Z,55.41
2019-04-21T06:46:35.221Z,53.51
2019-04-21T06:49:41.095Z,55.19
2019-04-21T06:52:53.891Z,55.92
2019-04-21T06:55:57.536Z,55.95
2019-04-21T06:59:01.407Z,55.16
2019-04-21T07:02:31.856Z,53.18
2019-04-21T07:05:17.104Z,52.90
2019-04-21T07:11:26.716Z,52.36
2019-04-21T07:14:33.351Z,53.32
2019-04-21T07:17:43.242Z,52.74
2019-04-21T07:20:53.530Z,52.94
2019-04-21T07:23:59.136Z,51.71
2019-04-21T07:27:08.949Z,52.27
2019-04-21T07:30:12.954Z,52.08
2019-04-21T07:33:41.511Z,51.43
2019-04-21T07:36:31.861Z,51.11
2019-04-21T07:39:29.895Z,49.60
2019-04-21T07:42:32.858Z,49.32
2019-04-21T07:45:42.680Z,47.75
2019-04-21T07:48:57.954Z,47.05
2019-04-21T07:52:22.132Z,45.38
2019-04-21T07:58:38.675Z,42.82
2019-04-21T08:01:44.138Z,41.65
2019-04-21T08:07:57.184Z,38.40
2019-04-21T08:11:01.723Z,38.95
2019-04-21T08:14:16.995Z,38.65
2019-04-21T08:17:16.568Z,37.62
2019-04-21T08:20:24.395Z,38.78
2019-04-21T08:23:31.460Z,37.95
2019-04-21T08:26:45.019Z,37.28
2019-04-21T08:29:54.874Z,36.19
2019-04-21T08:33:00.516Z,36.37
2019-04-21T08:39:11.062Z,34.77
2019-04-21T08:42:23.922Z,36.05
2019-04-21T08:48:33.896Z,36.67
2019-04-21T08:51:43.631Z,35.54
2019-04-21T08:54:51.676Z,34.40
2019-04-21T09:01:30.470Z,35.75
2019-04-21T09:04:33.478Z,33.24
2019-04-21T09:07:47.250Z,32.48
2019-04-21T09:10:56.088Z,32.27
2019-04-21T09:13:57.529Z,31.37
2019-04-21T09:17:05.189Z,31.29
2019-04-21T09:20:22.628Z,31.07
2019-04-21T09:23:21.044Z,32.36
2019-04-21T09:26:27.096Z,31.68
2019-04-21T09:29:25.678Z,30.21
2019-04-21T09:32:23.886Z,29.65
2019-04-21T09:35:27.046Z,29.71
2019-04-21T09:38:37.110Z,29.08
2019-04-21T09:41:40.961Z,28.41
2019-04-21T09:44:51.865Z,29.83
2019-04-21T09:48:00.869Z,29.71
2019-04-21T09:51:01.945Z,29.93
2019-04-21T09:54:12.068Z,30.03
2019-04-21T09:57:23.987Z,28.00
2019-04-21T10:00:25.347Z,28.25
2019-04-21T10:03:39.625Z,29.02
2019-04-21T10:06:35.469Z,27.47
2019-04-21T10:09:40.594Z,27.92
2019-04-21T10:12:45.792Z,27.60
2019-04-21T10:16:05.145Z,27.13
2019-04-21T10:19:11.178Z,26.71
2019-04-21T10:22:18.912Z,28.79
2019-04-21T10:25:25.040Z,27.62
2019-04-21T10:28:31.425Z,26.80
2019-04-21T10:31:36.820Z,26.80
2019-04-21T10:34:43.202Z,25.52
2019-04-21T10:38:01.258Z,26.17
2019-04-21T10:40:55.436Z,27.36
2019-04-21T10:44:01.036Z,25.88
2019-04-21T10:47:06.865Z,25.58
2019-04-21T10:50:13.318Z,25.18
2019-04-21T10:53:23.030Z,25.14
2019-04-21T10:56:34.381Z,24.10
2019-04-21T10:59:35.366Z,23.35
2019-04-21T11:02:46.492Z,23.94
2019-04-21T11:05:52.633Z,22.84
2019-04-21T11:08:59.936Z,22.83
2019-04-21T11:12:08.292Z,23.98
2019-04-21T11:15:14.829Z,23.63
2019-04-21T11:18:21.939Z,23.06
2019-04-21T11:21:27.254Z,21.95
2019-04-21T11:24:33.305Z,22.18
2019-04-21T11:27:38.562Z,21.03
2019-04-21T11:30:44.512Z,22.41
2019-04-21T11:33:51.181Z,22.03
2019-04-21T11:36:56.463Z,21.85
2019-04-21T11:40:07.171Z,22.37
2019-04-21T11:43:09.583Z,22.85
2019-04-21T11:46:16.134Z,22.54
2019-04-21T11:49:22.346Z,21.67
2019-04-21T11:52:27.550Z,21.69
2019-04-21T11:55:37.101Z,22.48
2019-04-21T11:58:41.541Z,22.03
2019-04-21T12:01:47.619Z,21.73
2019-04-21T12:04:53.782Z,21.26
2019-04-21T12:08:00.172Z,22.96
2019-04-21T12:11:05.578Z,22.49
2019-04-21T12:14:12.043Z,22.93
2019-04-21T12:17:18.311Z,21.81
2019-04-21T12:20:24.429Z,22.17
2019-04-21T12:23:30.189Z,23.12
2019-04-21T12:26:35.998Z,21.74
2019-04-21T12:29:41.859Z,21.65
2019-04-21T12:32:55.964Z,22.05
2019-04-21T12:36:01.896Z,21.68
2019-04-21T12:39:10.862Z,21.63
2019-04-21T12:42:16.588Z,22.06
2019-04-21T12:45:22.137Z,21.29
2019-04-21T12:48:28.211Z,21.26
2019-04-21T12:51:35.407Z,20.88
2019-04-21T12:54:41.805Z,20.56
2019-04-21T12:57:47.666Z,19.49
2019-04-21T13:00:52.978Z,19.57
2019-04-21T13:03:58.207Z,18.92
2019-04-21T13:07:05.569Z,18.97
2019-04-21T13:10:12.601Z,20.31
2019-04-21T13:13:17.893Z,20.77
2019-04-21T13:16:23.380Z,20.92
2019-04-21T13:19:29.387Z,21.01
2019-04-21T13:22:36.033Z,19.18
2019-04-21T13:25:41.787Z,20.54
2019-04-21T13:28:48.183Z,20.27
2019-04-21T13:31:54.282Z,21.01
2019-04-21T13:35:01.112Z,20.96
2019-04-21T13:38:18.825Z,21.32
2019-04-21T13:41:32.611Z,21.30
2019-04-21T13:44:26.749Z,21.38
2019-04-21T13:47:34.535Z,21.23
2019-04-21T13:50:41.498Z,22.58
2019-04-21T13:53:46.774Z,23.17
2019-04-21T13:56:52.398Z,20.99
2019-04-21T13:59:59.143Z,20.93
2019-04-21T14:03:05.098Z,20.85
2019-04-21T14:06:10.284Z,20.84
2019-04-21T14:09:40.294Z,20.68
2019-04-21T14:12:36.409Z,20.56
2019-04-21T14:15:42.091Z,20.49
2019-04-21T14:18:49.595Z,20.70
2019-04-21T14:21:55.201Z,20.59
2019-04-21T14:25:01.807Z,20.55
2019-04-21T14:28:08.106Z,19.67
2019-04-21T14:31:14.459Z,21.85
2019-04-21T14:34:20.094Z,20.34
2019-04-21T14:37:26.476Z,19.70
2019-04-21T14:40:35.029Z,19.43
2019-04-21T14:43:39.258Z,19.65
2019-04-21T14:47:06.965Z,19.30
2019-04-21T14:50:32.440Z,19.80
2019-04-21T14:53:48.047Z,19.82
2019-04-21T14:56:53.491Z,20.08
2019-04-21T15:00:00.722Z,19.66
2019-04-21T15:03:07.536Z,20.61
2019-04-21T15:06:13.544Z,21.06
2019-04-21T15:09:18.946Z,21.45
2019-04-21T15:12:23.995Z,20.69
2019-04-21T15:15:29.946Z,20.86
2019-04-21T15:18:36.831Z,22.29
2019-04-21T15:21:42.520Z,21.03
2019-04-21T15:24:48.155Z,20.63
2019-04-21T15:27:54.882Z,19.77
2019-04-21T15:31:00.736Z,19.82
2019-04-21T15:34:05.897Z,20.22
2019-04-21T15:37:11.022Z,20.76
2019-04-21T15:40:27.258Z,21.11
2019-04-21T15:43:24.513Z,20.92
2019-04-21T15:46:34.727Z,21.02
2019-04-21T15:50:04.732Z,20.59
2019-04-21T15:53:05.622Z,20.12
2019-04-21T15:56:35.667Z,20.23
2019-04-21T15:59:50.739Z,20.11
2019-04-21T16:02:58.355Z,20.24
2019-04-21T16:06:03.797Z,20.18
2019-04-21T16:09:14.921Z,20.11
2019-04-21T16:12:17.823Z,20.36
2019-04-21T16:15:23.091Z,20.80
2019-04-21T16:18:28.242Z,21.13
2019-04-21T16:21:38.345Z,21.84
2019-04-21T16:24:41.902Z,20.70
2019-04-21T16:27:47.695Z,23.11
2019-04-21T16:30:54.323Z,20.86
2019-04-21T16:34:00.925Z,21.26
2019-04-21T16:37:07.677Z,20.80
2019-04-21T16:40:14.635Z,20.99
2019-04-21T16:43:20.052Z,21.25
2019-04-21T16:46:25.387Z,20.41
2019-04-21T16:49:31.781Z,21.18
2019-04-21T16:52:52.232Z,22.35
2019-04-21T16:56:11.485Z,20.99
2019-04-21T16:59:20.980Z,21.37
2019-04-21T17:02:26.190Z,21.57
2019-04-21T17:05:32.235Z,21.84
2019-04-21T17:08:38.859Z,22.69
2019-04-21T17:11:46.999Z,22.19
2019-04-21T17:15:09.428Z,22.65
2019-04-21T17:18:15.073Z,24.78
2019-04-21T17:21:07.450Z,25.87
2019-04-21T17:24:14.596Z,28.07
2019-04-21T17:27:20.778Z,28.33
2019-04-21T17:30:26.490Z,30.43
2019-04-21T17:33:33.751Z,28.98
2019-04-21T17:36:39.275Z,30.29
2019-04-21T17:39:44.974Z,31.25
2019-04-21T17:42:59.322Z,32.07
2019-04-21T17:45:57.515Z,30.55
2019-04-21T17:49:03.210Z,30.55
2019-04-21T17:52:21.617Z,30.71
2019-04-21T17:55:31.296Z,30.71
2019-04-21T17:58:58.189Z,29.84
2019-04-21T18:02:02.118Z,30.54
2019-04-21T18:05:16.664Z,31.87
2019-04-21T18:08:21.614Z,32.37
2019-04-21T18:11:12.644Z,32.53
2019-04-21T18:14:11.421Z,33.45
2019-04-21T18:17:16.563Z,32.77
2019-04-21T18:20:28.067Z,32.45
2019-04-21T18:23:54.233Z,34.44
2019-04-21T18:26:56.562Z,34.96
2019-04-21T18:30:02.501Z,36.80
2019-04-21T18:33:15.602Z,39.03
2019-04-21T18:36:34.909Z,39.75
2019-04-21T18:39:57.491Z,39.35
2019-04-21T18:43:32.646Z,39.01
2019-04-21T18:46:40.026Z,39.45
2019-04-21T18:49:35.233Z,39.71
2019-04-21T18:53:03.250Z,40.25
2019-04-21T18:56:00.329Z,41.93
2019-04-21T18:59:00.626Z,40.79
2019-04-21T19:02:10.206Z,41.84
2019-04-21T19:05:16.033Z,42.32
2019-04-21T19:08:38.718Z,43.02
2019-04-21T19:11:42.531Z,43.42
2019-04-21T19:14:54.903Z,44.46
2019-04-21T19:18:28.107Z,44.93
2019-04-21T19:21:00.258Z,44.32
2019-04-21T19:24:25.345Z,45.03
2019-04-21T19:27:23.734Z,44.24
2019-04-21T19:30:36.839Z,44.75
2019-04-21T19:33:29.706Z,45.97
2019-04-21T19:36:23.670Z,45.39
2019-04-21T19:39:43.137Z,45.50
2019-04-21T19:42:46.452Z,46.43
2019-04-21T19:45:59.392Z,47.13
2019-04-21T19:49:17.253Z,47.90
2019-04-21T19:52:05.595Z,47.84
2019-04-21T19:55:04.491Z,48.18
2019-04-21T19:58:10.748Z,48.26
2019-04-21T20:01:17.375Z,48.07
2019-04-21T20:04:29.806Z,48.11
2019-04-21T20:07:44.509Z,48.25
2019-04-21T20:10:58.002Z,47.75
2019-04-21T20:14:32.555Z,49.05
2019-04-21T20:17:08.055Z,49.08
2019-04-21T20:19:58.231Z,49.72
2019-04-21T20:23:03.513Z,50.36
2019-04-21T20:26:10.425Z,50.94
2019-04-21T20:29:34.419Z,50.25
2019-04-21T20:32:42.706Z,50.29
2019-04-21T20:35:51.966Z,50.32
2019-04-21T20:38:47.242Z,49.50
2019-04-21T20:41:57.569Z,50.69
2019-04-21T20:45:23.556Z,50.89
2019-04-21T20:48:07.276Z,51.57
2019-04-21T20:51:23.747Z,50.69
2019-04-21T20:54:31.719Z,52.27
2019-04-21T20:57:30.076Z,52.64
2019-04-21T21:00:54.523Z,53.01
2019-04-21T21:03:50.340Z,53.35
2019-04-21T21:07:01.596Z,53.45
2019-04-21T21:10:08.744Z,53.20
2019-04-21T21:13:20.630Z,53.79
2019-04-21T21:16:23.250Z,53.19
2019-04-21T21:19:29.718Z,53.65
2019-04-21T21:22:29.641Z,54.08
2019-04-21T21:25:46.218Z,55.20
2019-04-21T21:28:39.030Z,54.50
2019-04-21T21:31:59.552Z,52.90
2019-04-21T21:34:56.642Z,54.15
2019-04-21T21:38:08.629Z,54.69
2019-04-21T21:41:09.617Z,54.41
2019-04-21T21:44:09.187Z,53.80
2019-04-21T21:47:23.999Z,54.61
2019-04-21T21:50:25.099Z,55.14
2019-04-21T21:53:28.455Z,55.98
2019-04-21T21:56:30.604Z,55.50
2019-04-21T21:59:38.168Z,55.65
2019-04-21T22:02:47.658Z,56.83
2019-04-21T22:05:58.243Z,57.52
2019-04-21T22:08:56.623Z,58.61
2019-04-21T22:12:06.271Z,59.37
2019-04-21T22:15:16.933Z,59.40
2019-04-21T22:18:35.037Z,59.47
2019-04-21T22:21:41.477Z,59.57
2019-04-21T22:24:46.951Z,60.55
2019-04-21T22:27:37.063Z,60.60
2019-04-21T22:30:46.452Z,61.56
2019-04-21T22:33:53.854Z,62.10
2019-04-21T22:37:16.669Z,62.87
2019-04-21T22:40:19.028Z,63.27
2019-04-21T22:43:21.707Z,64.08
2019-04-21T22:46:18.536Z,64.17
2019-04-21T22:49:23.923Z,64.59
2019-04-21T22:52:30.500Z,64.56
2019-04-21T22:55:37.207Z,65.01
2019-04-21T22:58:44.443Z,65.08
2019-04-21T23:01:50.819Z,65.07
2019-04-21T23:04:58.633Z,65.49
2019-04-21T23:08:06.825Z,65.72
2019-04-21T23:11:12.886Z,66.00
2019-04-21T23:14:19.018Z,66.29
2019-04-21T23:17:50.738Z,65.86
2019-04-21T23:20:53.675Z,65.92
2019-04-21T23:24:02.886Z,66.36
2019-04-21T23:27:05.165Z,66.84
2019-04-21T23:30:19.886Z,67.27
2019-04-21T23:33:07.104Z,67.30
2019-04-21T23:36:17.215Z,67.15
2019-04-21T23:39:23.332Z,67.26
2019-04-21T23:42:31.759Z,67.06
2019-04-21T23:45:37.749Z,68.60
2019-04-21T23:48:55.943Z,68.62
2019-04-21T23:51:52.897Z,69.20
2019-04-21T23:54:53.530Z,69.60
2019-04-21T23:58:07.069Z,69.53
